Taylor, Nebraska
Current Conditions -  °F | °C
As of 8:53 AM on Monday 24 Nov 2014 (Local Time) from KODX Reporting Station
Clear Clear  
Wind Chill: 10°   Ceiling: Unl
Heat Index: 25°   Visibility: 10mi
Dew Point: 16°   Wind: 23mph
Humidity: 69%   Direction: 320°NW
Pressure: 29.77"   Gusts: 31mph
Location:  41.77°N, 99.38°W
Report Text: KODX 241453Z AUTO 32020G27KT 10SM CLR M04/M09 A2977 RMK AO2 PK WND 31028/1443 SLP102 T10391089 53030
Loading
Personal Weather Stations






























Interactive Weather Map New forecast layout! Learn more

10-Day Weather Forecast

Advertisements
Track Severe Weather on mobile